Princeton by the Sea, California
Current Conditions -  °F | °C
As of 3:35 PM on Saturday 20 Dec 2014 (Local Time) from KHAF Reporting Station
Haze Haze  
Wind Chill: 59°   Ceiling: 5500
Heat Index: 59°   Visibility: 3mi
Dew Point: 55°   Wind: 6mph
Humidity: 88%   Direction: 190°S
Pressure: 30.21"   Gusts: NA
Location:  37.4511°N, 122.414°W
Report Text: KHAF 202335Z AUTO 19005KT 3SM BR BKN055 OVC075 15/13 A3021 RMK AO2
Loading
Personal Weather Stations






























Interactive Weather Map New forecast layout! Learn more

10-Day Weather Forecast

Advertisements
Track Severe Weather on mobile